Time;durP1;ratioP1;P1;durP2;ratioP2;P2;SDS_P1;SDS_P2;PMS_P1;PMS_P2;Temp;Humidity;BMP_temperature;BMP_pressure;BME280_temperature;BME280_humidity;BME280_pressure;Samples;Min_cycle;Max_cycle;Signal;HPM_P1;HPM_P2
2023/03/03 00:01:09;;;;;;;27.88;16.20;;;;;;;6.57;54.58;101987.78;5067082;27;97506;-73
2023/03/03 00:03:35;;;;;;;28.58;15.93;;;;;;;6.42;55.13;101995.69;5071370;27;97314;-74
2023/03/03 00:06:03;;;;;;;32.80;17.25;;;;;;;6.40;54.87;102000.03;5069275;27;98808;-73
2023/03/03 00:08:31;;;;;;;34.38;17.50;;;;;;;6.31;55.00;101998.25;5067174;27;102756;-73
2023/03/03 00:10:59;;;;;;;33.55;16.77;;;;;;;6.28;54.74;101998.28;5069136;27;96841;-74
2023/03/03 00:13:27;;;;;;;27.27;15.32;;;;;;;6.39;54.44;102003.53;5066323;27;97315;-74
2023/03/03 00:16:12;;;;;;;27.85;15.43;;;;;;;6.39;54.81;102000.91;5072338;27;100559;-74
2023/03/03 00:18:41;;;;;;;29.23;14.63;;;;;;;6.57;54.73;101993.03;5070062;27;99199;-72
2023/03/03 00:21:22;;;;;;;27.60;14.27;;;;;;;6.72;54.15;101986.94;5069169;27;97048;-74
2023/03/03 00:23:49;;;;;;;24.80;14.27;;;;;;;6.85;53.56;101996.56;5062212;27;97578;-75
2023/03/03 00:26:21;;;;;;;31.42;16.45;;;;;;;6.96;52.95;101986.03;5071314;27;100641;-74
2023/03/03 00:28:49;;;;;;;31.83;17.15;;;;;;;6.65;53.88;101980.81;5067337;27;98125;-74
2023/03/03 00:31:19;;;;;;;29.45;16.52;;;;;;;6.63;53.92;101973.81;5069990;27;96762;-73
2023/03/03 00:33:49;;;;;;;31.23;15.48;;;;;;;6.56;54.05;101978.19;5066736;27;96731;-75
2023/03/03 00:36:31;;;;;;;32.30;17.38;;;;;;;5.98;55.76;101972.81;5072909;27;99241;-73
2023/03/03 00:39:10;;;;;;;36.70;18.02;;;;;;;6.02;55.74;101988.59;5063460;27;101210;-74
2023/03/03 00:41:37;;;;;;;38.15;18.42;;;;;;;5.98;56.19;101987.69;5068963;27;96836;-74
2023/03/03 00:44:34;;;;;;;39.92;21.35;;;;;;;5.97;56.56;101970.22;5066781;27;98552;-73
2023/03/03 00:47:24;;;;;;;41.90;21.85;;;;;;;6.01;56.41;101977.22;5065875;27;100882;-73
2023/03/03 00:49:50;;;;;;;36.35;18.73;;;;;;;6.21;55.67;101969.38;5064773;27;99023;-74
2023/03/03 00:52:18;;;;;;;31.35;17.52;;;;;;;6.42;55.45;101972.06;5068667;27;96916;-75
2023/03/03 00:54:45;;;;;;;35.75;18.90;;;;;;;6.69;54.23;101972.06;5068855;27;96778;-75
2023/03/03 00:57:12;;;;;;;34.22;17.13;;;;;;;6.71;53.53;101969.41;5069710;27;98473;-74
2023/03/03 00:59:39;;;;;;;30.80;16.35;;;;;;;6.59;54.08;101966.78;5058737;27;97784;-74
2023/03/03 01:02:07;;;;;;;31.08;17.25;;;;;;;6.61;53.79;101965.06;5069030;27;97352;-74
2023/03/03 01:04:34;;;;;;;32.80;17.20;;;;;;;6.61;53.76;101963.31;5063425;27;97047;-74
2023/03/03 01:07:00;;;;;;;40.75;19.95;;;;;;;6.63;53.82;101953.66;5067393;27;98389;-74
2023/03/03 01:09:27;;;;;;;34.10;17.98;;;;;;;6.59;54.09;101951.03;5065875;27;98683;-75
2023/03/03 01:11:55;;;;;;;32.97;16.08;;;;;;;6.62;54.36;101951.06;5066866;27;96795;-74
2023/03/03 01:14:21;;;;;;;31.52;15.43;;;;;;;6.72;53.98;101964.16;5065697;27;97179;-75
2023/03/03 01:16:49;;;;;;;30.83;15.68;;;;;;;6.63;53.69;101958.91;5069117;27;99311;-75
2023/03/03 01:19:16;;;;;;;26.00;15.43;;;;;;;6.35;54.69;101962.41;5061218;27;99017;-75
2023/03/03 01:21:43;;;;;;;26.50;15.20;;;;;;;6.28;55.38;101955.41;5067909;27;96763;-75
2023/03/03 01:24:09;;;;;;;27.90;14.52;;;;;;;6.59;54.36;101957.16;5065707;27;99178;-74
2023/03/03 01:26:36;;;;;;;26.80;14.20;;;;;;;6.65;54.00;101951.91;5067985;27;97569;-74
2023/03/03 01:29:02;;;;;;;26.98;14.13;;;;;;;6.60;54.44;101950.16;5067827;27;98775;-77
2023/03/03 01:31:28;;;;;;;25.80;14.35;;;;;;;6.76;54.03;101949.28;5072075;27;96783;-74
2023/03/03 01:33:55;;;;;;;28.00;15.13;;;;;;;6.72;54.05;101943.16;5068950;27;97781;-74
2023/03/03 01:36:24;;;;;;;30.02;15.15;;;;;;;6.69;53.89;101942.28;5069031;27;99017;-74
2023/03/03 01:38:51;;;;;;;29.85;15.32;;;;;;;6.73;53.94;101936.16;5065945;27;101200;-73
2023/03/03 01:41:18;;;;;;;28.08;15.05;;;;;;;6.00;55.59;101931.72;5069231;27;97834;-75
2023/03/03 01:43:45;;;;;;;27.65;14.57;;;;;;;5.74;57.18;101930.75;5064671;27;96796;-73
2023/03/03 01:46:44;;;;;;;28.70;14.30;;;;;;;5.70;57.02;101925.50;5070001;27;98889;-74
2023/03/03 01:49:15;;;;;;;26.02;14.15;;;;;;;5.24;58.76;101929.69;5061484;27;99195;-73
2023/03/03 01:51:48;;;;;;;25.60;14.00;;;;;;;5.43;58.10;101921.03;5065034;27;96852;-74
2023/03/03 01:54:20;;;;;;;26.65;14.50;;;;;;;5.19;58.84;101917.41;5067485;27;98680;-74
2023/03/03 01:56:48;;;;;;;28.48;14.75;;;;;;;4.99;59.97;101920.81;5063274;27;101323;-73
2023/03/03 01:59:17;;;;;;;28.90;15.57;;;;;;;5.42;58.59;101927.16;5067011;27;98619;-72
2023/03/03 02:01:45;;;;;;;30.70;14.85;;;;;;;5.29;59.19;101926.22;5066264;27;96894;-73
2023/03/03 02:04:12;;;;;;;27.10;14.52;;;;;;;5.80;58.00;101922.91;5068880;27;98675;-74
2023/03/03 02:06:44;;;;;;;33.00;16.05;;;;;;;5.91;57.49;101926.44;5064172;27;98923;-73
2023/03/03 02:09:17;;;;;;;27.75;14.63;;;;;;;5.68;57.88;101924.63;5066641;27;99094;-73
2023/03/03 02:11:44;;;;;;;30.52;15.82;;;;;;;5.94;57.13;101933.47;5066157;27;96743;-74
2023/03/03 02:14:12;;;;;;;27.73;15.52;;;;;;;6.24;56.28;101938.75;5064389;27;97617;-73
2023/03/03 02:16:39;;;;;;;27.70;15.07;;;;;;;6.10;56.59;101934.38;5062040;27;99012;-73
2023/03/03 02:19:13;;;;;;;30.33;15.68;;;;;;;6.02;56.80;101938.75;5064297;27;98762;-74
2023/03/03 02:21:39;;;;;;;29.90;14.18;;;;;;;5.75;56.61;101937.75;5069179;27;96911;-73
2023/03/03 02:24:13;;;;;;;26.15;14.13;;;;;;;5.60;57.54;101948.19;5065706;27;97257;-73
2023/03/03 02:26:42;;;;;;;26.90;15.32;;;;;;;6.01;56.82;101948.34;5063710;27;99318;-73
2023/03/03 02:29:10;;;;;;;27.98;15.63;;;;;;;5.97;56.43;101939.59;5064511;27;99199;-74
2023/03/03 02:31:37;;;;;;;23.75;14.52;;;;;;;5.79;57.00;101939.50;5066594;27;96842;-73
2023/03/03 02:34:04;;;;;;;29.10;15.52;;;;;;;5.58;57.88;101949.91;5061502;27;97148;-75
2023/03/03 02:36:33;;;;;;;28.52;14.68;;;;;;;5.69;57.74;101943.00;5066252;27;99123;-73
2023/03/03 02:39:04;;;;;;;26.05;15.05;;;;;;;5.47;58.11;101941.13;5059273;27;98913;-72
2023/03/03 02:41:34;;;;;;;28.88;15.40;;;;;;;5.20;58.95;101942.75;5068049;27;99023;-75
2023/03/03 02:44:05;;;;;;;31.15;15.13;;;;;;;5.36;59.07;101937.59;5063113;27;96907;-73
2023/03/03 02:46:34;;;;;;;24.88;14.00;;;;;;;5.22;59.39;101941.03;5065541;27;99752;-74
2023/03/03 02:49:01;;;;;;;28.30;14.98;;;;;;;5.34;58.81;101948.06;5054717;27;98816;-74
2023/03/03 02:51:27;;;;;;;27.75;14.95;;;;;;;5.15;59.28;101947.09;5066628;27;97351;-75
2023/03/03 02:53:54;;;;;;;27.27;14.80;;;;;;;5.20;59.45;101944.50;5066313;27;97472;-73
2023/03/03 02:56:20;;;;;;;27.83;15.02;;;;;;;5.09;59.38;101933.97;5066481;27;98960;-74
2023/03/03 02:58:47;;;;;;;28.25;14.63;;;;;;;5.14;59.70;101942.72;5064508;27;101486;-74
2023/03/03 03:01:14;;;;;;;28.67;14.38;;;;;;;5.56;58.70;101938.56;5070334;27;98666;-75
2023/03/03 03:03:43;;;;;;;27.58;15.13;;;;;;;5.80;58.19;101949.13;5065448;27;96754;-75
2023/03/03 03:06:09;;;;;;;28.77;15.25;;;;;;;5.74;57.18;101951.75;5072419;27;99521;-74
2023/03/03 03:08:36;;;;;;;30.33;15.63;;;;;;;5.47;58.91;101952.50;5069524;27;97284;-73
2023/03/03 03:11:02;;;;;;;27.50;14.68;;;;;;;5.35;59.18;101952.44;5073896;27;96861;-74
2023/03/03 03:13:29;;;;;;;30.30;15.35;;;;;;;5.51;58.47;101949.00;5067897;27;97277;-75
2023/03/03 03:15:56;;;;;;;31.48;15.55;;;;;;;5.54;58.35;101958.66;5066738;27;99319;-74
2023/03/03 03:18:24;;;;;;;30.20;15.88;;;;;;;5.53;58.65;101959.50;5066246;27;99132;-74
2023/03/03 03:20:50;;;;;;;30.23;15.52;;;;;;;5.44;58.47;101959.50;5071074;27;97948;-75
2023/03/03 03:23:17;;;;;;;30.27;15.02;;;;;;;5.20;60.18;101974.19;5070885;27;97048;-75
2023/03/03 03:25:45;;;;;;;29.27;14.93;;;;;;;5.21;60.18;101975.97;5069562;27;100679;-74
2023/03/03 03:28:12;;;;;;;30.08;14.80;;;;;;;4.94;60.85;101970.53;5068715;27;100830;-74
2023/03/03 03:30:38;;;;;;;27.92;14.45;;;;;;;4.88;60.97;101965.25;5065953;27;97198;-73
2023/03/03 03:33:05;;;;;;;28.73;15.40;;;;;;;5.39;59.74;101976.91;5066978;27;97736;-74
2023/03/03 03:35:34;;;;;;;28.30;14.68;;;;;;;5.67;58.35;101976.19;5071177;27;98895;-74
2023/03/03 03:38:01;;;;;;;28.20;14.45;;;;;;;5.94;57.40;101978.94;5069680;27;101016;-74
2023/03/03 03:40:28;;;;;;;31.88;15.65;;;;;;;6.09;57.08;101980.75;5068855;27;97349;-75
2023/03/03 03:42:54;;;;;;;31.27;15.23;;;;;;;6.10;57.23;101958.88;5069813;27;97805;-74
2023/03/03 03:45:21;;;;;;;31.30;15.75;;;;;;;5.90;56.90;101960.56;5067550;27;98776;-74
2023/03/03 03:47:47;;;;;;;30.27;14.57;;;;;;;5.44;58.45;101965.63;5071922;27;98887;-73
2023/03/03 03:50:14;;;;;;;31.33;15.48;;;;;;;5.25;59.63;101965.50;5068529;27;96984;-76
2023/03/03 03:52:43;;;;;;;28.48;15.18;;;;;;;4.95;61.03;101953.97;5061736;27;97181;-73
2023/03/03 03:55:10;;;;;;;31.52;15.07;;;;;;;4.99;60.54;101960.97;5066370;27;99319;-74
2023/03/03 03:57:36;;;;;;;29.10;14.30;;;;;;;5.06;60.50;101957.50;5066525;27;98617;-75
2023/03/03 04:00:03;;;;;;;29.75;15.10;;;;;;;5.06;60.11;101951.41;5067546;27;98339;-74
2023/03/03 04:02:30;;;;;;;31.70;15.65;;;;;;;5.04;60.56;101956.66;5070858;27;96816;-74
2023/03/03 04:04:57;;;;;;;35.25;15.18;;;;;;;4.86;60.55;101946.03;5067679;27;98182;-73
2023/03/03 04:07:23;;;;;;;32.83;16.75;;;;;;;4.89;61.38;101943.44;5071143;27;99343;-73
2023/03/03 04:09:51;;;;;;;34.40;16.70;;;;;;;5.08;60.89;101936.56;5067581;27;96893;-73
2023/03/03 04:12:18;;;;;;;30.35;15.73;;;;;;;5.13;60.95;101934.84;5070764;27;96884;-73
2023/03/03 04:14:44;;;;;;;34.92;16.42;;;;;;;5.18;60.24;101933.16;5065260;27;98930;-73
2023/03/03 04:17:17;;;;;;;32.85;15.57;;;;;;;5.19;60.35;101935.75;5066290;27;99167;-73
2023/03/03 04:19:43;;;;;;;31.38;15.13;;;;;;;5.05;60.93;101929.59;5065614;27;98760;-76
2023/03/03 04:22:11;;;;;;;27.70;13.82;;;;;;;4.86;61.09;101938.16;5068779;27;96829;-74
2023/03/03 04:24:37;;;;;;;31.02;14.55;;;;;;;4.86;60.90;101939.94;5067777;27;98862;-74
2023/03/03 04:27:05;;;;;;;29.23;14.55;;;;;;;5.33;60.23;101934.94;5069823;27;99443;-74
2023/03/03 04:29:32;;;;;;;29.02;14.48;;;;;;;5.51;58.12;101933.28;5067833;27;96838;-74
2023/03/03 04:31:58;;;;;;;25.05;12.57;;;;;;;4.92;59.49;101930.38;5064190;27;97289;-74
2023/03/03 04:34:24;;;;;;;22.98;11.55;;;;;;;4.95;59.59;101930.38;5061275;27;98855;-74
2023/03/03 04:36:51;;;;;;;26.15;12.90;;;;;;;4.86;60.64;101932.09;5068654;27;97750;-72
2023/03/03 04:39:18;;;;;;;33.97;16.58;;;;;;;4.89;61.13;101924.22;5060600;27;97636;-73
2023/03/03 04:41:44;;;;;;;41.95;19.05;;;;;;;4.64;61.95;101920.56;5067947;27;96893;-73
2023/03/03 04:44:12;;;;;;;40.67;17.65;;;;;;;4.69;61.54;101926.72;5063876;27;98848;-75
2023/03/03 04:46:39;;;;;;;37.78;17.23;;;;;;;4.53;62.35;101925.72;5068399;27;97628;-73
2023/03/03 04:49:09;;;;;;;43.50;18.05;;;;;;;4.64;62.46;101939.78;5062558;27;98233;-73
2023/03/03 04:51:35;;;;;;;47.55;18.92;;;;;;;4.28;63.52;101934.22;5063161;27;97027;-72
2023/03/03 04:54:02;;;;;;;43.60;18.55;;;;;;;4.51;63.17;101926.56;5070463;27;98439;-72
2023/03/03 04:56:30;;;;;;;38.53;18.13;;;;;;;4.64;62.45;101933.66;5063117;27;99550;-72
2023/03/03 04:58:56;;;;;;;43.25;19.13;;;;;;;4.87;62.38;101937.31;5069400;27;97341;-73
2023/03/03 05:01:24;;;;;;;42.30;18.13;;;;;;;4.99;61.50;101926.91;5066989;27;97605;-74
2023/03/03 05:03:51;;;;;;;43.40;18.58;;;;;;;4.57;62.26;101931.84;5066333;27;97856;-73
2023/03/03 05:06:17;;;;;;;44.58;18.50;;;;;;;4.47;62.88;101935.25;5071012;27;99299;-74
2023/03/03 05:08:44;;;;;;;40.55;18.67;;;;;;;4.81;62.55;101929.41;5063147;27;96936;-75
2023/03/03 05:11:11;;;;;;;42.72;18.92;;;;;;;4.73;62.42;101920.63;5072177;27;96990;-73
2023/03/03 05:13:37;;;;;;;46.00;18.98;;;;;;;4.81;61.95;101925.06;5069196;27;98347;-72
2023/03/03 05:16:04;;;;;;;47.17;19.45;;;;;;;5.06;61.46;101912.97;5066882;27;99137;-70
2023/03/03 05:18:33;;;;;;;51.53;21.50;;;;;;;4.91;61.44;101919.88;5066674;27;96707;-71
2023/03/03 05:20:59;;;;;;;45.55;20.25;;;;;;;4.88;62.15;101912.00;5064261;27;96982;-71
2023/03/03 05:23:26;;;;;;;47.85;20.10;;;;;;;4.88;62.29;101907.63;5068459;27;98898;-72
2023/03/03 05:25:52;;;;;;;49.20;21.20;;;;;;;4.86;62.38;101911.97;5062569;27;98815;-71
2023/03/03 05:28:19;;;;;;;52.95;22.08;;;;;;;4.88;62.22;101918.13;5064410;27;96770;-72
2023/03/03 05:30:46;;;;;;;48.03;21.02;;;;;;;4.95;61.93;101912.06;5067753;27;97021;-71
2023/03/03 05:33:14;;;;;;;50.97;21.50;;;;;;;5.08;61.55;101921.72;5067002;27;99854;-71
2023/03/03 05:35:43;;;;;;;48.58;21.65;;;;;;;4.85;62.30;101933.81;5066870;27;99231;-71
2023/03/03 05:38:09;;;;;;;44.85;19.10;;;;;;;5.16;61.57;101938.38;5066031;27;98414;-71
2023/03/03 05:40:37;;;;;;;48.03;20.92;;;;;;;5.30;60.76;101940.19;5068005;27;97307;-71
2023/03/03 05:43:04;;;;;;;48.25;20.17;;;;;;;5.22;60.89;101938.41;5073310;27;99248;-71
2023/03/03 05:45:30;;;;;;;49.03;20.65;;;;;;;5.60;59.87;101941.19;5065444;27;99177;-72
2023/03/03 05:47:57;;;;;;;48.17;20.77;;;;;;;5.74;58.81;101946.50;5066066;27;97600;-70
2023/03/03 05:50:24;;;;;;;50.83;21.08;;;;;;;5.66;58.68;101953.44;5071212;27;97651;-70
2023/03/03 05:52:52;;;;;;;45.30;19.50;;;;;;;5.73;58.74;101949.97;5064100;27;98953;-72
2023/03/03 05:55:19;;;;;;;43.25;18.63;;;;;;;5.30;59.88;101954.19;5069857;27;100960;-69
2023/03/03 05:57:46;;;;;;;43.53;18.80;;;;;;;5.55;59.41;101952.53;5065337;27;97347;-71
2023/03/03 06:00:14;;;;;;;39.45;17.63;;;;;;;5.84;58.66;101948.25;5065222;27;97422;-71
2023/03/03 06:02:41;;;;;;;37.05;16.58;;;;;;;5.94;58.04;101949.22;5063353;27;101356;-71
2023/03/03 06:05:09;;;;;;;34.08;15.63;;;;;;;5.92;57.14;101949.19;5065941;27;98183;-71
2023/03/03 06:07:36;;;;;;;31.42;14.25;;;;;;;5.85;57.58;101950.00;5062995;27;98544;-70
2023/03/03 06:10:05;;;;;;;35.70;15.55;;;;;;;5.80;57.82;101949.13;5068726;27;98717;-72
2023/03/03 06:12:31;;;;;;;35.42;15.40;;;;;;;5.82;57.74;101944.78;5066196;27;99182;-78
2023/03/03 06:14:58;;;;;;;35.58;16.23;;;;;;;5.86;57.85;101957.00;5064332;27;98628;-75
2023/03/03 06:17:25;;;;;;;40.10;17.90;;;;;;;5.36;59.09;101958.56;5072896;27;96697;-74
2023/03/03 06:20:12;;;;;;;40.03;15.43;;;;;;;5.14;59.62;101955.81;5066450;27;97551;-75
2023/03/03 06:22:39;;;;;;;36.80;16.42;;;;;;;5.35;59.30;101967.28;5070214;27;98114;-74
2023/03/03 06:25:08;;;;;;;34.85;14.27;;;;;;;5.72;58.35;101961.34;5070195;27;99016;-74
2023/03/03 06:27:34;;;;;;;32.63;15.23;;;;;;;5.25;59.16;101965.50;5071190;27;96755;-74
2023/03/03 06:30:01;;;;;;;32.72;14.55;;;;;;;5.52;58.52;101973.47;5062949;27;97292;-74
2023/03/03 06:32:27;;;;;;;28.33;13.80;;;;;;;5.39;58.86;101974.28;5063992;27;98865;-74
2023/03/03 06:34:53;;;;;;;29.25;13.02;;;;;;;5.62;58.89;101972.69;5063911;27;99082;-74
2023/03/03 06:37:20;;;;;;;31.67;13.65;;;;;;;5.59;58.51;101968.28;5067151;27;97083;-74
2023/03/03 06:39:47;;;;;;;31.00;14.45;;;;;;;5.44;59.03;101964.72;5070257;27;96831;-73
2023/03/03 06:42:14;;;;;;;24.92;11.55;;;;;;;5.51;59.41;101972.59;5071000;27;99254;-73
2023/03/03 06:44:41;;;;;;;27.08;12.63;;;;;;;5.35;59.23;101972.53;5062529;27;98809;-74
2023/03/03 06:47:07;;;;;;;37.30;15.55;;;;;;;4.94;60.49;101974.91;5063670;27;96874;-74
2023/03/03 06:49:34;;;;;;;34.42;14.73;;;;;;;4.65;61.20;101983.44;5065133;27;98363;-73
2023/03/03 06:52:09;;;;;;;41.22;16.25;;;;;;;4.60;61.79;101976.38;5064637;27;98923;-73
2023/03/03 06:54:35;;;;;;;48.35;21.08;;;;;;;4.91;61.69;101975.78;5061907;27;102212;-73
2023/03/03 06:57:15;;;;;;;40.67;16.98;;;;;;;5.24;60.71;101989.97;5062156;27;97632;-73
2023/03/03 06:59:42;;;;;;;48.25;19.05;;;;;;;5.48;59.67;101990.09;5060206;27;97063;-74
2023/03/03 07:02:15;;;;;;;48.97;19.10;;;;;;;5.69;58.52;101995.44;5056150;27;97519;-73
2023/03/03 07:04:48;;;;;;;51.70;20.52;;;;;;;5.81;58.03;102003.34;5062730;27;97780;-73
2023/03/03 07:07:19;;;;;;;57.83;22.10;;;;;;;5.81;58.83;102007.72;5057474;27;96853;-74
2023/03/03 07:12:31;;;;;;;55.60;20.92;;;;;;;5.22;nan;102006.53;5058016;27;99886;-73
2023/03/03 07:15:14;;;;;;;56.00;21.80;;;;;;;5.08;60.66;102005.56;5068327;27;98324;-73
2023/03/03 07:17:46;;;;;;;47.20;18.67;;;;;;;5.62;59.75;102014.63;5067395;27;96903;-74
2023/03/03 07:20:19;;;;;;;46.75;17.60;;;;;;;6.01;58.44;102011.31;5059657;27;98913;-74
2023/03/03 07:22:46;;;;;;;45.92;16.25;;;;;;;5.89;58.54;102014.78;5066460;27;98180;-75
2023/03/03 07:25:21;;;;;;;35.45;15.40;;;;;;;5.29;59.96;102014.44;5060332;27;99094;-73
2023/03/03 07:27:48;;;;;;;34.92;15.48;;;;;;;5.54;59.31;102011.09;5057312;27;96905;-73
2023/03/03 07:30:24;;;;;;;41.55;18.80;;;;;;;5.88;58.25;102018.28;5056920;27;97267;-72
2023/03/03 07:32:55;;;;;;;34.72;15.38;;;;;;;5.83;58.59;102013.84;5062117;27;101417;-73
2023/03/03 07:35:35;;;;;;;40.20;16.05;;;;;;;5.27;59.53;102019.66;5058275;27;99026;-73
2023/03/03 07:38:02;;;;;;;41.47;17.65;;;;;;;5.00;60.85;102025.59;5066946;27;97073;-73
2023/03/03 07:40:36;;;;;;;41.60;16.75;;;;;;;5.61;59.86;102023.38;5068860;27;97263;-73
2023/03/03 07:43:30;;;;;;;52.15;18.17;;;;;;;5.64;59.29;102030.38;5054790;27;98827;-74
2023/03/03 07:46:02;;;;;;;43.38;17.17;;;;;;;5.87;58.47;102023.47;5052380;27;98982;-73
2023/03/03 07:48:34;;;;;;;39.08;16.38;;;;;;;5.77;59.33;102030.44;5059992;27;97100;-75
2023/03/03 07:51:04;;;;;;;43.95;17.27;;;;;;;5.99;58.26;102032.31;5062149;27;96829;-74
2023/03/03 07:53:36;;;;;;;37.50;16.33;;;;;;;6.21;57.76;102035.00;5062779;27;101746;-74
2023/03/03 07:56:07;;;;;;;36.35;15.30;;;;;;;6.27;57.31;102045.53;5063048;27;98901;-75
2023/03/03 07:58:39;;;;;;;31.70;15.23;;;;;;;6.07;58.24;102034.09;5060473;27;97222;-74
2023/03/03 08:01:38;;;;;;;36.28;15.32;;;;;;;5.87;58.80;102037.50;5066635;27;97139;-73
2023/03/03 08:04:13;;;;;;;40.45;16.70;;;;;;;5.82;58.57;102033.97;5063115;27;97990;-74
2023/03/03 08:06:44;;;;;;;41.75;16.63;;;;;;;5.38;60.30;102027.63;5066374;27;97829;-74
2023/03/03 08:09:40;;;;;;;42.75;16.98;;;;;;;5.47;59.99;102035.50;5058475;27;97095;-75
2023/03/03 08:12:31;;;;;;;44.70;17.85;;;;;;;5.49;60.84;102039.91;5065681;27;96888;-75
2023/03/03 08:15:07;;;;;;;46.08;17.58;;;;;;;5.45;60.88;102037.25;5065593;27;101581;-75
2023/03/03 08:17:36;;;;;;;;;;;;;;;5.66;59.99;102026.88;5069071;27;98891;-75
2023/03/03 08:20:30;;;;;;;34.28;15.63;;;;;;;5.72;59.77;102019.03;5062477;27;96870;-74
2023/03/03 08:22:56;;;;;;;30.83;13.50;;;;;;;5.72;60.16;102032.16;5065207;27;96826;-75
2023/03/03 08:25:23;;;;;;;45.05;17.58;;;;;;;5.44;60.74;102027.66;5060138;27;98916;-74
2023/03/03 08:27:49;;;;;;;30.45;14.43;;;;;;;5.51;60.65;102026.81;5061947;27;99811;-76
2023/03/03 08:30:16;;;;;;;26.55;13.27;;;;;;;5.46;60.90;102031.13;5065629;27;97533;-75
2023/03/03 08:32:44;;;;;;;38.10;17.45;;;;;;;5.49;60.83;102025.91;5060081;27;99770;-74
2023/03/03 08:35:11;;;;;;;34.85;16.30;;;;;;;5.75;60.40;102031.31;5060045;27;99307;-73
2023/03/03 08:37:37;;;;;;;29.88;14.48;;;;;;;5.75;60.31;102026.94;5063625;27;98998;-74
2023/03/03 08:40:04;;;;;;;34.33;14.20;;;;;;;5.84;59.57;102032.19;5061091;27;96831;-74
2023/03/03 08:42:31;;;;;;;34.33;14.80;;;;;;;5.94;59.33;102028.78;5063237;27;97265;-74
2023/03/03 08:44:58;;;;;;;31.65;14.98;;;;;;;5.55;60.03;102037.31;5063135;27;100015;-74
2023/03/03 08:47:25;;;;;;;39.63;18.13;;;;;;;5.49;61.01;102039.03;5062986;27;99100;-73
2023/03/03 08:49:53;;;;;;;49.97;20.88;;;;;;;5.32;61.34;102040.66;5064804;27;97314;-74
2023/03/03 08:52:20;;;;;;;48.08;21.20;;;;;;;5.50;61.15;102033.81;5065208;27;96846;-74
2023/03/03 08:54:46;;;;;;;50.05;22.13;;;;;;;5.54;60.98;102043.44;5065784;27;100800;-73
2023/03/03 08:57:13;;;;;;;46.75;20.50;;;;;;;5.85;59.59;102039.19;5063257;27;96908;-73
2023/03/03 08:59:39;;;;;;;50.13;22.10;;;;;;;6.13;59.02;102039.34;5061248;27;96885;-72
2023/03/03 09:02:07;;;;;;;46.88;20.15;;;;;;;5.58;59.88;102039.06;5061206;27;99388;-73
2023/03/03 09:04:33;;;;;;;36.38;17.25;;;;;;;5.44;60.58;102033.78;5059453;27;99217;-73
2023/03/03 09:07:01;;;;;;;46.28;20.60;;;;;;;5.29;61.43;102038.03;5064301;27;98801;-72
2023/03/03 09:09:28;;;;;;;34.92;17.35;;;;;;;5.28;61.97;102029.28;5066078;27;96973;-72
2023/03/03 09:11:58;;;;;;;38.15;17.88;;;;;;;5.43;61.41;102018.03;5061466;27;97049;-72
2023/03/03 09:14:29;;;;;;;45.13;19.95;;;;;;;5.96;60.11;102021.81;5062753;27;99280;-72
2023/03/03 09:16:56;;;;;;;37.08;17.13;;;;;;;6.20;59.00;102026.25;5072452;27;99184;-74
2023/03/03 09:19:26;;;;;;;38.40;17.88;;;;;;;6.38;58.61;102020.16;5063824;27;96709;-74
2023/03/03 09:21:55;;;;;;;33.38;16.42;;;;;;;6.44;58.00;102020.16;5059132;27;98691;-73
2023/03/03 09:24:28;;;;;;;36.33;18.30;;;;;;;6.57;58.37;102014.06;5061757;27;100091;-73
2023/03/03 09:26:55;;;;;;;37.42;19.30;;;;;;;6.52;57.34;102022.81;5061452;27;100637;-72
2023/03/03 09:29:27;;;;;;;44.10;20.23;;;;;;;6.39;57.89;102016.66;5066467;27;96842;-74
2023/03/03 09:31:56;;;;;;;47.80;23.42;;;;;;;6.08;58.20;102026.22;5062345;27;98118;-72
2023/03/03 09:34:26;;;;;;;48.00;23.02;;;;;;;6.07;58.78;102023.59;5063493;27;97717;-73
2023/03/03 09:36:54;;;;;;;46.13;21.77;;;;;;;5.76;59.42;102028.69;5068169;27;98932;-73
2023/03/03 09:39:24;;;;;;;48.10;23.08;;;;;;;5.79;59.36;102031.31;5071164;27;96826;-73
2023/03/03 09:42:21;;;;;;;42.75;21.30;;;;;;;6.20;58.52;102030.63;5062394;27;99592;-72
2023/03/03 09:45:11;;;;;;;40.45;19.05;;;;;;;6.47;58.28;102038.56;5066147;27;99030;-71
2023/03/03 09:47:47;;;;;;;39.45;18.70;;;;;;;6.32;57.72;102036.78;5064139;27;99091;-71
2023/03/03 09:50:27;;;;;;;39.27;20.00;;;;;;;6.29;58.42;102033.28;5066052;27;96827;-71
2023/03/03 09:53:08;;;;;;;42.63;21.77;;;;;;;6.26;58.57;102035.88;5062748;27;97161;-71
2023/03/03 09:55:42;;;;;;;46.00;24.55;;;;;;;6.20;58.26;102028.00;5056039;27;98898;-71
2023/03/03 09:58:29;;;;;;;50.38;25.48;;;;;;;5.84;59.82;102031.34;5061383;27;101125;-73
2023/03/03 10:01:08;;;;;;;53.88;26.25;;;;;;;6.38;59.02;102031.53;5068834;27;96878;-71
2023/03/03 10:03:50;;;;;;;49.72;25.33;;;;;;;6.65;57.83;102032.44;5059306;27;98061;-74
2023/03/03 10:06:25;;;;;;;51.10;25.23;;;;;;;6.55;57.74;102023.72;5064913;27;101079;-73
2023/03/03 10:09:08;;;;;;;53.47;25.67;;;;;;;6.86;56.95;102034.22;5062104;27;99100;-73
2023/03/03 10:11:41;;;;;;;45.03;23.10;;;;;;;6.50;57.51;102029.84;5060306;27;97723;-71
2023/03/03 10:14:27;;;;;;;40.75;22.40;;;;;;;6.52;57.67;102033.31;5062367;27;96907;-73
2023/03/03 10:17:23;;;;;;;38.47;21.23;;;;;;;6.33;57.69;102032.41;5067385;27;100003;-72
2023/03/03 10:20:04;;;;;;;35.17;19.02;;;;;;;6.65;57.63;102030.72;5056702;27;99249;-73
2023/03/03 10:22:44;;;;;;;28.63;15.27;;;;;;;6.51;57.52;102021.94;5066875;27;97012;-72
2023/03/03 10:25:22;;;;;;;32.38;17.65;;;;;;;6.51;57.66;102021.94;5063669;27;97499;-72
2023/03/03 10:27:59;;;;;;;44.22;22.40;;;;;;;6.82;57.02;102021.97;5063678;27;99133;-74
2023/03/03 10:30:41;;;;;;;48.00;23.48;;;;;;;7.22;56.18;102028.94;5065422;27;97662;-71
2023/03/03 10:33:16;;;;;;;40.55;21.83;;;;;;;7.46;55.55;102022.75;5065495;27;97103;-74
2023/03/03 10:36:20;;;;;;;37.88;19.58;;;;;;;7.47;54.87;102019.25;5068247;27;97404;-72
2023/03/03 10:39:03;;;;;;;49.97;24.83;;;;;;;7.42;55.14;102026.25;5059480;27;97806;-73
2023/03/03 10:41:48;;;;;;;49.30;25.35;;;;;;;6.83;57.33;102026.34;5070372;27;99162;-72
2023/03/03 10:44:37;;;;;;;33.83;17.30;;;;;;;6.97;57.16;102027.22;5065042;27;98506;-72
2023/03/03 10:47:32;;;;;;;37.35;17.42;;;;;;;6.96;56.96;102025.44;5067174;27;97256;-73
2023/03/03 10:50:10;;;;;;;33.30;14.85;;;;;;;7.28;56.33;102022.81;5061480;27;98875;-72
2023/03/03 10:52:46;;;;;;;33.25;15.52;;;;;;;7.36;55.53;102031.53;5064318;27;99907;-73
2023/03/03 10:55:23;;;;;;;33.85;16.50;;;;;;;7.51;55.67;102026.25;5070079;27;97090;-71
2023/03/03 10:58:02;;;;;;;29.80;15.80;;;;;;;7.50;55.76;102030.63;5062484;27;96785;-73
2023/03/03 11:00:35;;;;;;;27.75;14.13;;;;;;;7.36;56.37;102035.03;5067779;27;99291;-74
2023/03/03 11:03:36;;;;;;;32.25;15.65;;;;;;;7.57;56.11;102031.50;5063896;27;100767;-73
2023/03/03 11:06:18;;;;;;;41.15;19.90;;;;;;;7.11;57.05;102033.34;5060149;27;96736;-72
2023/03/03 11:08:51;;;;;;;38.65;18.33;;;;;;;7.31;57.09;102028.03;5061908;27;96889;-72
2023/03/03 11:11:25;;;;;;;36.97;18.58;;;;;;;6.92;58.11;102034.22;5067074;27;98956;-72
2023/03/03 11:14:00;;;;;;;43.70;19.05;;;;;;;7.16;58.36;102021.94;5063442;27;100759;-74
2023/03/03 11:16:41;;;;;;;36.33;17.65;;;;;;;6.93;58.12;102028.97;5065148;27;98032;-72
2023/03/03 11:19:29;;;;;;;38.05;17.83;;;;;;;7.15;58.25;102022.81;5075572;27;96807;-73
2023/03/03 11:22:07;;;;;;;41.45;20.35;;;;;;;7.59;56.72;102022.72;5060729;27;98935;-72
2023/03/03 11:24:57;;;;;;;46.30;21.02;;;;;;;7.61;56.50;102018.31;5075918;27;98896;-72
2023/03/03 11:27:55;;;;;;;43.00;20.15;;;;;;;7.83;55.83;102010.34;5068210;27;97006;-72
2023/03/03 11:30:33;;;;;;;;;;;;;;;7.80;55.91;102019.16;5069563;27;97431;-71
2023/03/03 11:33:03;;;;;;;41.25;19.05;;;;;;;7.59;56.68;102025.38;5068095;27;101481;-72
2023/03/03 11:35:43;;;;;;;48.42;22.00;;;;;;;7.54;56.69;102028.88;5060709;27;99282;-72
2023/03/03 11:38:30;;;;;;;45.42;21.05;;;;;;;8.17;55.03;102025.13;5068599;27;97018;-71